Time;durP1;ratioP1;P1;durP2;ratioP2;P2;SDS_P1;SDS_P2;PMS_P1;PMS_P2;Temp;Humidity;BMP_temperature;BMP_pressure;BME280_temperature;BME280_humidity;BME280_pressure;Samples;Min_cycle;Max_cycle;Signal;HPM_P1;HPM_P2
2022/11/03 00:01:38;;;;;;;12.00;2.40;;;14.00;66.00;;;;;;5025240;28;20030;-59
2022/11/03 00:04:09;;;;;;;8.15;2.25;;;14.00;66.10;;;;;;5020288;28;20085;-60
2022/11/03 00:06:36;;;;;;;9.75;2.75;;;14.00;66.20;;;;;;5029689;28;20029;-60
2022/11/03 00:09:04;;;;;;;11.23;2.67;;;14.00;66.30;;;;;;5030437;28;20025;-59
2022/11/03 00:11:32;;;;;;;10.65;2.30;;;14.00;66.30;;;;;;5022337;28;20125;-60
2022/11/03 00:13:59;;;;;;;9.65;2.60;;;14.00;66.40;;;;;;5022012;28;20347;-59
2022/11/03 00:16:24;;;;;;;9.65;2.58;;;14.00;66.60;;;;;;5023677;28;20025;-60
2022/11/03 00:18:51;;;;;;;10.07;2.35;;;13.90;66.60;;;;;;5029132;28;20029;-60
2022/11/03 00:21:17;;;;;;;9.27;2.20;;;13.90;66.70;;;;;;5021646;28;20104;-60
2022/11/03 00:23:43;;;;;;;10.60;2.83;;;13.90;66.80;;;;;;5015601;28;20022;-60
2022/11/03 00:26:15;;;;;;;8.55;2.00;;;13.90;66.90;;;;;;5027943;28;20517;-60
2022/11/03 00:28:42;;;;;;;7.63;2.05;;;13.90;66.90;;;;;;5027702;28;20030;-60
2022/11/03 00:31:14;;;;;;;9.30;2.58;;;13.90;67.00;;;;;;5020203;28;20029;-60
2022/11/03 00:33:40;;;;;;;;;;;13.90;67.10;;;;;;5019298;28;20417;-60
2022/11/03 00:36:07;;;;;;;8.50;2.22;;;13.90;67.70;;;;;;5024762;28;20265;-60
2022/11/03 00:38:33;;;;;;;7.10;2.05;;;13.90;67.20;;;;;;5036494;28;20026;-60
2022/11/03 00:41:01;;;;;;;9.05;2.08;;;13.90;67.30;;;;;;5021958;28;20032;-60
2022/11/03 00:43:28;;;;;;;12.63;2.67;;;13.90;67.30;;;;;;5017354;28;20061;-60
2022/11/03 00:45:54;;;;;;;10.23;2.53;;;13.90;67.40;;;;;;5018343;28;20038;-59
2022/11/03 00:48:33;;;;;;;9.13;2.50;;;13.90;67.50;;;;;;5031635;28;20033;-60
2022/11/03 00:51:12;;;;;;;8.38;2.25;;;13.90;67.50;;;;;;5023616;28;20422;-59
2022/11/03 00:53:40;;;;;;;11.15;2.90;;;13.90;67.60;;;;;;5013844;28;20324;-60
2022/11/03 00:56:09;;;;;;;10.43;2.42;;;13.80;67.70;;;;;;5014903;28;20037;-60
2022/11/03 00:58:34;;;;;;;7.55;2.10;;;13.80;67.70;;;;;;5016639;28;20030;-60
2022/11/03 01:01:07;;;;;;;12.88;3.15;;;13.80;67.80;;;;;;5014563;28;20024;-59
2022/11/03 01:03:35;;;;;;;10.98;2.67;;;13.80;68.50;;;;;;5014587;28;20044;-60
2022/11/03 01:08:46;;;;;;;9.70;2.45;;;13.80;68.00;;;;;;5015540;28;20044;-60
2022/11/03 01:14:02;;;;;;;7.97;2.60;;;13.70;68.20;;;;;;5010213;28;20041;-60
2022/11/03 01:16:28;;;;;;;8.45;2.30;;;13.70;68.20;;;;;;5015624;28;20454;-60
2022/11/03 01:18:54;;;;;;;10.55;3.00;;;13.70;68.30;;;;;;5012390;28;20033;-60
2022/11/03 01:21:20;;;;;;;10.20;2.13;;;13.70;68.30;;;;;;5015076;28;20117;-60
2022/11/03 01:23:46;;;;;;;9.98;2.28;;;13.70;68.40;;;;;;5014312;28;20065;-60
2022/11/03 01:26:13;;;;;;;8.85;2.38;;;13.70;68.40;;;;;;5015141;28;21655;-60
2022/11/03 01:28:40;;;;;;;11.95;2.65;;;13.70;68.50;;;;;;5014412;28;20037;-60
2022/11/03 01:31:09;;;;;;;10.68;2.72;;;13.70;68.60;;;;;;5015751;28;20026;-60
2022/11/03 01:33:34;;;;;;;9.30;2.33;;;13.70;68.60;;;;;;5015251;28;20439;-60
2022/11/03 01:36:00;;;;;;;11.05;3.00;;;13.70;68.70;;;;;;5015943;28;20044;-60
2022/11/03 01:38:29;;;;;;;7.65;2.35;;;13.60;68.70;;;;;;5015122;28;20096;-60
2022/11/03 01:40:55;;;;;;;8.82;2.00;;;13.60;68.80;;;;;;5016094;28;20065;-60
2022/11/03 01:43:22;;;;;;;12.55;2.85;;;13.60;68.90;;;;;;5014267;28;20062;-60
2022/11/03 01:45:51;;;;;;;9.65;2.85;;;13.60;68.90;;;;;;5015716;28;20095;-60
2022/11/03 01:48:18;;;;;;;11.55;2.33;;;13.60;69.00;;;;;;5013578;28;20032;-60
2022/11/03 01:50:46;;;;;;;14.40;2.90;;;13.60;69.00;;;;;;5015120;28;20454;-60
2022/11/03 01:53:13;;;;;;;8.65;2.40;;;13.60;69.10;;;;;;5013464;28;20030;-60
2022/11/03 01:55:39;;;;;;;9.52;2.55;;;13.60;69.20;;;;;;5014331;28;20025;-60
2022/11/03 01:58:16;;;;;;;12.68;2.50;;;13.60;69.20;;;;;;5015324;28;20379;-60
2022/11/03 02:00:44;;;;;;;7.45;2.22;;;13.60;69.40;;;;;;5028840;28;20392;-60
2022/11/03 02:03:11;;;;;;;12.43;2.70;;;13.60;69.50;;;;;;5027942;28;20038;-60
2022/11/03 02:05:39;;;;;;;9.93;2.70;;;13.50;69.60;;;;;;5014142;28;20053;-59
2022/11/03 02:08:09;;;;;;;14.43;2.72;;;13.50;69.60;;;;;;5023647;28;20033;-60
2022/11/03 02:10:36;;;;;;;9.50;2.30;;;13.50;69.70;;;;;;5018357;28;20031;-60
2022/11/03 02:13:25;;;;;;;9.38;2.30;;;13.50;69.70;;;;;;5032083;28;20461;-60
2022/11/03 02:15:57;;;;;;;11.02;2.50;;;13.50;69.80;;;;;;5019120;28;20041;-60
2022/11/03 02:18:32;;;;;;;8.32;2.17;;;13.50;69.90;;;;;;5022426;28;20081;-60
2022/11/03 02:21:25;;;;;;;13.48;2.30;;;13.50;69.90;;;;;;5013784;28;20041;-60
2022/11/03 02:24:19;;;;;;;9.23;2.85;;;13.50;69.80;;;;;;5020826;28;20037;-60
2022/11/03 02:26:47;;;;;;;12.15;2.78;;;13.50;69.90;;;;;;5013853;28;20176;-60
2022/11/03 02:29:13;;;;;;;11.20;2.63;;;13.50;69.90;;;;;;5027568;28;20350;-60
2022/11/03 02:31:48;;;;;;;7.30;2.45;;;13.50;69.90;;;;;;5024936;28;20030;-60
2022/11/03 02:34:26;;;;;;;10.25;2.67;;;13.50;70.00;;;;;;5015142;28;20033;-61
2022/11/03 02:36:58;;;;;;;8.15;1.80;;;13.40;70.00;;;;;;5014107;28;20032;-60
2022/11/03 02:39:33;;;;;;;8.18;2.30;;;13.40;70.00;;;;;;5025779;28;20025;-60
2022/11/03 02:42:00;;;;;;;13.02;2.88;;;13.40;70.10;;;;;;5021225;28;20021;-59
2022/11/03 02:44:27;;;;;;;8.00;2.22;;;13.40;70.10;;;;;;5031979;28;20037;-60
2022/11/03 02:47:00;;;;;;;11.32;2.47;;;13.40;70.20;;;;;;5023445;28;20099;-60
2022/11/03 02:49:26;;;;;;;10.40;2.45;;;13.40;70.20;;;;;;5023554;28;20104;-60
2022/11/03 02:52:02;;;;;;;10.50;2.58;;;13.40;70.20;;;;;;5014285;28;20117;-60
2022/11/03 02:54:42;;;;;;;7.13;2.13;;;13.40;70.20;;;;;;5014302;28;20033;-59
2022/11/03 02:57:17;;;;;;;9.35;2.50;;;13.40;70.30;;;;;;5023579;28;20037;-60
2022/11/03 03:00:05;;;;;;;11.02;2.63;;;13.40;70.40;;;;;;5014719;28;20026;-59
2022/11/03 03:02:48;;;;;;;11.00;2.22;;;13.40;70.40;;;;;;5026143;28;20030;-60
2022/11/03 03:05:17;;;;;;;11.25;2.50;;;13.40;70.40;;;;;;5015065;28;20088;-59
2022/11/03 03:07:47;;;;;;;8.85;2.63;;;13.40;70.40;;;;;;5027284;28;20091;-60
2022/11/03 03:10:27;;;;;;;7.22;2.22;;;13.40;70.40;;;;;;5022159;28;20033;-59
2022/11/03 03:12:56;;;;;;;8.10;2.40;;;13.40;70.40;;;;;;5034292;28;20131;-59
2022/11/03 03:15:43;;;;;;;10.18;2.63;;;13.40;70.40;;;;;;5018311;28;20119;-60
2022/11/03 03:18:13;;;;;;;7.95;2.20;;;13.40;70.30;;;;;;5017771;28;20034;-60
2022/11/03 03:21:11;;;;;;;7.07;2.20;;;13.50;70.40;;;;;;5016849;28;20048;-60
2022/11/03 03:23:46;;;;;;;10.27;2.22;;;13.40;70.40;;;;;;5026662;28;20359;-60
2022/11/03 03:26:39;;;;;;;10.18;2.10;;;13.40;70.50;;;;;;5030580;28;20065;-60
2022/11/03 03:29:10;;;;;;;10.35;2.20;;;13.40;70.60;;;;;;5028182;28;20044;-60
2022/11/03 03:31:41;;;;;;;8.60;2.25;;;13.40;70.60;;;;;;5026417;28;20156;-60
2022/11/03 03:34:09;;;;;;;14.85;2.60;;;13.40;70.70;;;;;;5024917;28;20386;-60
2022/11/03 03:36:37;;;;;;;8.88;2.47;;;13.40;70.70;;;;;;5024347;28;20117;-60
2022/11/03 03:39:05;;;;;;;9.90;2.55;;;13.30;70.90;;;;;;5033015;28;20021;-61
2022/11/03 03:41:32;;;;;;;8.05;2.55;;;13.30;71.30;;;;;;5033203;28;20036;-60
2022/11/03 03:44:04;;;;;;;9.40;2.30;;;13.30;71.50;;;;;;5030981;28;20077;-60
2022/11/03 03:46:35;;;;;;;10.20;2.20;;;13.30;71.60;;;;;;5032826;28;20144;-60
2022/11/03 03:49:01;;;;;;;8.27;2.30;;;13.30;71.70;;;;;;5020906;28;20358;-60
2022/11/03 03:51:29;;;;;;;9.75;2.45;;;13.30;71.70;;;;;;5027712;28;20045;-60
2022/11/03 03:53:55;;;;;;;8.68;2.30;;;13.30;71.80;;;;;;5028476;28;20125;-60
2022/11/03 03:56:34;;;;;;;10.90;2.33;;;13.30;71.80;;;;;;5032027;28;20501;-60
2022/11/03 03:59:00;;;;;;;9.27;2.30;;;13.30;71.80;;;;;;5032028;28;20034;-60
2022/11/03 04:01:25;;;;;;;9.50;2.53;;;13.40;71.80;;;;;;5025010;28;20065;-60
2022/11/03 04:03:51;;;;;;;8.10;2.25;;;13.30;71.60;;;;;;5022296;28;20022;-60
2022/11/03 04:06:17;;;;;;;8.45;2.10;;;13.30;71.60;;;;;;5019295;28;20401;-60
2022/11/03 04:08:42;;;;;;;10.70;2.28;;;13.30;71.60;;;;;;5031762;28;20026;-59
2022/11/03 04:22:16;;;;;;;6.47;2.08;;;13.30;71.40;;;;;;5026099;28;20041;-59
2022/11/03 04:24:46;;;;;;;6.70;2.42;;;13.40;71.40;;;;;;5034376;28;20029;-59
2022/11/03 04:27:11;;;;;;;6.13;2.00;;;13.40;71.50;;;;;;5024868;28;20026;-60
2022/11/03 04:29:37;;;;;;;9.10;2.40;;;13.30;71.40;;;;;;5032530;28;20500;-59
2022/11/03 04:32:14;;;;;;;8.65;2.28;;;13.40;71.50;;;;;;5026711;28;20057;-60
2022/11/03 04:34:40;;;;;;;10.13;2.00;;;13.40;71.50;;;;;;5025131;28;20029;-60
2022/11/03 04:37:10;;;;;;;13.75;2.35;;;13.40;71.50;;;;;;5023655;28;20022;-60
2022/11/03 04:39:36;;;;;;;11.07;2.40;;;13.40;71.80;;;;;;5031837;28;20514;-60
2022/11/03 04:42:13;;;;;;;7.80;2.15;;;13.40;71.60;;;;;;5028237;28;20211;-60
2022/11/03 04:44:38;;;;;;;8.90;2.03;;;13.40;71.60;;;;;;5022337;28;20451;-59
2022/11/03 04:47:10;;;;;;;9.40;2.25;;;13.40;71.50;;;;;;5025453;28;20109;-60
2022/11/03 04:49:36;;;;;;;;;;;13.40;71.50;;;;;;5041924;28;20072;-60
2022/11/03 04:52:01;;;;;;;8.63;1.58;;;13.40;71.60;;;;;;5027592;28;19941;-59
2022/11/03 04:54:27;;;;;;;7.13;2.00;;;13.40;71.50;;;;;;5023315;28;20113;-60
2022/11/03 04:56:53;;;;;;;8.68;2.20;;;13.40;71.50;;;;;;5019172;28;20120;-60
2022/11/03 04:59:18;;;;;;;9.65;1.98;;;13.40;72.20;;;;;;5019836;28;20072;-60
2022/11/03 05:01:44;;;;;;;11.55;2.50;;;13.40;71.50;;;;;;5012518;28;20030;-60
2022/11/03 05:04:16;;;;;;;7.35;1.90;;;13.50;71.50;;;;;;5014441;28;20045;-59
2022/11/03 05:06:52;;;;;;;7.22;2.03;;;13.50;71.60;;;;;;5018435;28;20492;-60
2022/11/03 05:09:26;;;;;;;9.38;2.30;;;13.50;71.60;;;;;;5015361;28;20030;-60
2022/11/03 05:11:52;;;;;;;7.97;2.03;;;13.50;71.60;;;;;;5005848;28;20534;-60
2022/11/03 05:14:20;;;;;;;11.30;2.33;;;13.50;71.60;;;;;;5000449;28;20113;-60
2022/11/03 05:16:49;;;;;;;8.63;2.58;;;13.50;71.60;;;;;;5001523;28;20038;-60
2022/11/03 05:19:19;;;;;;;8.43;2.20;;;13.50;71.60;;;;;;5000035;28;20033;-60
2022/11/03 05:21:48;;;;;;;7.05;1.95;;;13.50;71.60;;;;;;4996641;28;20411;-60
2022/11/03 05:24:15;;;;;;;8.68;2.30;;;13.50;71.60;;;;;;5001962;28;20026;-60
2022/11/03 05:26:42;;;;;;;11.50;2.42;;;13.50;71.70;;;;;;4995609;28;20041;-60
2022/11/03 05:29:12;;;;;;;7.35;1.90;;;13.50;71.70;;;;;;4998799;28;20121;-60
2022/11/03 05:31:40;;;;;;;12.70;2.00;;;13.60;71.80;;;;;;5007316;28;20034;-60
2022/11/03 05:34:24;;;;;;;7.45;2.33;;;13.50;71.80;;;;;;4998836;28;20030;-60
2022/11/03 05:36:50;;;;;;;8.43;1.80;;;13.50;71.80;;;;;;4997479;28;20031;-63
2022/11/03 05:39:39;;;;;;;10.73;2.45;;;13.50;71.80;;;;;;4996771;28;20077;-63
2022/11/03 05:42:29;;;;;;;7.40;2.03;;;13.50;71.80;;;;;;5008399;28;20025;-62
2022/11/03 05:44:55;;;;;;;5.88;1.75;;;13.50;72.00;;;;;;5013820;28;20025;-63
2022/11/03 05:47:21;;;;;;;7.07;1.83;;;13.50;72.00;;;;;;5015429;28;20079;-63
2022/11/03 05:49:54;;;;;;;7.10;2.20;;;13.50;72.00;;;;;;5011480;28;20022;-63
2022/11/03 05:52:22;;;;;;;8.13;2.40;;;13.50;72.10;;;;;;5013057;28;20022;-63
2022/11/03 05:54:49;;;;;;;8.90;2.65;;;13.50;72.70;;;;;;5029900;28;20034;-62
2022/11/03 05:57:17;;;;;;;8.57;2.30;;;13.50;72.00;;;;;;5032146;28;20033;-63
2022/11/03 05:59:44;;;;;;;5.97;1.98;;;13.50;72.10;;;;;;5022301;28;20034;-63
2022/11/03 06:02:30;;;;;;;8.43;2.80;;;13.50;72.10;;;;;;5013998;28;20056;-63
2022/11/03 06:04:56;;;;;;;10.75;2.38;;;13.50;72.20;;;;;;5021956;28;20045;-63
2022/11/03 06:07:28;;;;;;;9.63;2.22;;;13.50;72.20;;;;;;5027685;28;20048;-62
2022/11/03 06:09:54;;;;;;;8.70;2.20;;;13.50;72.20;;;;;;5027283;28;20045;-63
2022/11/03 06:12:21;;;;;;;8.30;2.35;;;13.50;72.20;;;;;;5034697;28;20033;-62
2022/11/03 06:14:48;;;;;;;8.43;2.00;;;13.50;72.30;;;;;;5020424;28;20156;-62
2022/11/03 06:17:26;;;;;;;8.70;2.38;;;13.40;72.20;;;;;;5032294;28;20029;-62
2022/11/03 06:19:54;;;;;;;9.00;2.40;;;13.40;72.20;;;;;;5019390;28;20047;-62
2022/11/03 06:22:30;;;;;;;7.38;1.70;;;13.40;72.30;;;;;;5025849;28;20033;-62
2022/11/03 06:24:59;;;;;;;12.27;2.17;;;13.40;72.30;;;;;;5015655;28;20029;-62
2022/11/03 06:27:28;;;;;;;8.40;2.67;;;13.50;72.30;;;;;;5021800;28;20068;-62
2022/11/03 06:30:13;;;;;;;9.02;2.13;;;13.40;72.20;;;;;;5025723;28;20029;-63
2022/11/03 06:32:39;;;;;;;9.27;2.42;;;13.50;72.30;;;;;;5030561;28;20044;-63
2022/11/03 06:35:10;;;;;;;11.93;2.83;;;13.50;72.30;;;;;;5035134;28;20109;-62
2022/11/03 06:37:36;;;;;;;9.52;2.50;;;13.50;72.30;;;;;;5035467;28;20417;-62
2022/11/03 06:40:25;;;;;;;8.98;2.65;;;13.50;72.30;;;;;;5034378;28;20060;-62
2022/11/03 06:42:57;;;;;;;7.93;2.40;;;13.50;72.30;;;;;;5031429;28;20064;-62
2022/11/03 06:45:24;;;;;;;8.68;2.90;;;13.40;72.30;;;;;;5024456;28;20076;-62
2022/11/03 06:47:52;;;;;;;7.50;3.30;;;13.50;72.50;;;;;;5021859;28;20044;-62
2022/11/03 06:50:37;;;;;;;7.50;2.30;;;13.50;72.50;;;;;;5030365;28;20034;-62
2022/11/03 06:53:03;;;;;;;10.93;2.97;;;13.50;72.50;;;;;;5018140;28;20124;-63
2022/11/03 06:55:35;;;;;;;10.85;2.30;;;13.50;72.60;;;;;;5026519;28;20427;-62
2022/11/03 06:58:18;;;;;;;9.65;2.30;;;13.50;72.60;;;;;;5018938;28;20358;-62
2022/11/03 07:00:44;;;;;;;7.22;2.28;;;13.50;72.50;;;;;;5023991;28;20021;-63
2022/11/03 07:03:26;;;;;;;8.20;2.40;;;13.50;72.50;;;;;;5024619;28;20501;-63
2022/11/03 07:06:16;;;;;;;10.30;2.42;;;13.60;72.70;;;;;;5022736;28;20042;-62
2022/11/03 07:08:45;;;;;;;6.75;2.72;;;13.60;72.70;;;;;;5022920;28;20034;-62
2022/11/03 07:11:15;;;;;;;12.20;2.83;;;13.60;72.80;;;;;;5018297;28;20033;-62
2022/11/03 07:13:40;;;;;;;7.03;2.13;;;13.60;72.90;;;;;;5017591;28;21336;-63
2022/11/03 07:16:33;;;;;;;7.35;2.13;;;13.60;72.90;;;;;;5017940;28;20022;-62
2022/11/03 07:19:02;;;;;;;8.50;2.42;;;13.60;72.90;;;;;;5014179;28;20470;-62
2022/11/03 07:21:36;;;;;;;10.15;2.58;;;13.60;72.90;;;;;;5017764;28;20499;-62
2022/11/03 07:24:18;;;;;;;7.53;2.10;;;13.70;73.00;;;;;;5022880;28;20111;-62
2022/11/03 07:26:44;;;;;;;6.60;2.20;;;13.70;73.00;;;;;;5016202;28;20041;-62
2022/11/03 07:29:20;;;;;;;8.80;2.65;;;13.70;72.90;;;;;;5017237;28;20041;-63
2022/11/03 07:31:47;;;;;;;7.78;2.20;;;13.80;73.00;;;;;;5027685;28;20029;-63
2022/11/03 07:34:18;;;;;;;11.23;2.38;;;13.80;73.00;;;;;;5017990;28;20046;-62
2022/11/03 07:36:44;;;;;;;;;;;13.80;73.00;;;;;;5025613;28;20022;-62
2022/11/03 07:39:16;;;;;;;11.10;2.38;;;13.80;72.90;;;;;;5021525;28;19928;-62
2022/11/03 07:41:42;;;;;;;7.82;2.03;;;13.70;73.00;;;;;;5025371;28;20398;-63
2022/11/03 07:44:14;;;;;;;13.10;2.90;;;13.80;73.00;;;;;;5027376;28;20065;-62
2022/11/03 07:46:42;;;;;;;9.45;2.30;;;13.80;73.00;;;;;;5023418;28;20034;-63
2022/11/03 07:49:18;;;;;;;8.70;2.33;;;13.80;73.00;;;;;;5026991;28;20041;-63
2022/11/03 07:51:44;;;;;;;8.52;2.58;;;13.90;73.10;;;;;;5024743;28;20037;-63
2022/11/03 07:54:22;;;;;;;9.23;2.85;;;13.90;73.10;;;;;;5032444;28;20037;-63
2022/11/03 07:57:03;;;;;;;11.48;2.92;;;13.90;73.20;;;;;;5024937;28;20091;-62
2022/11/03 07:59:39;;;;;;;10.52;2.72;;;13.90;73.10;;;;;;5032686;28;20112;-63
2022/11/03 08:02:30;;;;;;;11.85;2.33;;;13.90;73.10;;;;;;5012239;28;20036;-63
2022/11/03 08:04:57;;;;;;;9.05;2.72;;;13.90;73.00;;;;;;5015881;28;20108;-63
2022/11/03 08:07:23;;;;;;;8.88;2.72;;;14.00;73.00;;;;;;5026057;28;20037;-63
2022/11/03 08:09:49;;;;;;;10.02;2.85;;;14.00;73.10;;;;;;5016744;28;20041;-62
2022/11/03 08:12:15;;;;;;;10.75;2.13;;;14.00;73.00;;;;;;5017213;28;20171;-63
2022/11/03 08:14:40;;;;;;;8.43;2.15;;;14.00;73.10;;;;;;5016784;28;20120;-63
2022/11/03 08:17:06;;;;;;;10.55;2.40;;;14.00;73.00;;;;;;5017752;28;20014;-62
2022/11/03 08:19:32;;;;;;;8.85;2.50;;;14.10;73.10;;;;;;5016033;28;20026;-63
2022/11/03 08:21:57;;;;;;;10.82;2.80;;;14.00;73.00;;;;;;5030155;28;20104;-63
2022/11/03 08:24:23;;;;;;;16.02;3.17;;;14.10;73.10;;;;;;5016747;28;20041;-63
2022/11/03 08:26:49;;;;;;;11.35;2.58;;;14.10;73.10;;;;;;5017094;28;20117;-63
2022/11/03 08:29:16;;;;;;;10.45;2.75;;;14.10;73.10;;;;;;5003319;28;20176;-63
2022/11/03 08:31:42;;;;;;;8.23;2.60;;;14.20;73.10;;;;;;5026550;28;20639;-63
2022/11/03 08:34:08;;;;;;;10.15;2.55;;;14.10;73.10;;;;;;5029826;28;20354;-63
2022/11/03 08:36:34;;;;;;;5.93;2.58;;;14.20;73.20;;;;;;5028177;28;20030;-63
2022/11/03 08:39:00;;;;;;;9.07;2.67;;;14.20;73.20;;;;;;5028783;28;20403;-63
2022/11/03 08:41:25;;;;;;;8.82;2.70;;;14.20;73.10;;;;;;5031058;28;20378;-63
2022/11/03 08:43:51;;;;;;;12.60;2.35;;;14.20;73.10;;;;;;5008293;28;20030;-63
2022/11/03 08:46:17;;;;;;;9.90;2.40;;;14.20;73.10;;;;;;5046020;28;20052;-64
2022/11/03 08:48:42;;;;;;;8.63;2.28;;;14.20;73.00;;;;;;5034405;28;20025;-63
2022/11/03 08:51:12;;;;;;;8.45;2.10;;;14.20;73.00;;;;;;5029138;28;20319;-63
2022/11/03 08:53:38;;;;;;;9.20;2.25;;;14.20;73.00;;;;;;5021901;28;20438;-63
2022/11/03 08:56:04;;;;;;;13.43;2.67;;;14.20;73.00;;;;;;5027201;28;20044;-62
2022/11/03 08:58:30;;;;;;;9.60;2.50;;;14.20;73.00;;;;;;5036919;28;20330;-63
2022/11/03 09:00:56;;;;;;;9.98;2.45;;;14.30;73.00;;;;;;5032359;28;20034;-64
2022/11/03 09:03:22;;;;;;;11.18;2.65;;;14.30;72.90;;;;;;5035090;28;20029;-63
2022/11/03 09:05:47;;;;;;;9.88;2.55;;;14.30;72.90;;;;;;5033357;28;20162;-63
2022/11/03 09:08:13;;;;;;;6.65;2.38;;;14.30;72.80;;;;;;5036635;28;20462;-63
2022/11/03 09:10:39;;;;;;;8.10;2.33;;;14.40;72.80;;;;;;5019378;28;20033;-64
2022/11/03 09:13:04;;;;;;;9.43;2.35;;;14.40;72.70;;;;;;5012936;28;20029;-63
2022/11/03 09:15:31;;;;;;;7.45;2.50;;;14.40;72.60;;;;;;5016746;28;20502;-63
2022/11/03 09:17:56;;;;;;;11.75;2.65;;;14.50;72.50;;;;;;5031890;28;20026;-63
2022/11/03 09:20:22;;;;;;;9.00;2.70;;;14.50;72.40;;;;;;5000132;28;20464;-63
2022/11/03 09:22:48;;;;;;;8.65;2.40;;;14.50;72.40;;;;;;5024701;28;20044;-64
2022/11/03 09:25:13;;;;;;;8.27;2.30;;;14.60;72.40;;;;;;5014183;28;20038;-63
2022/11/03 09:27:39;;;;;;;8.10;2.38;;;14.60;72.40;;;;;;5015819;28;20033;-64
2022/11/03 09:30:05;;;;;;;10.15;2.38;;;14.60;72.30;;;;;;5017685;28;20056;-63
2022/11/03 09:32:31;;;;;;;8.13;2.50;;;14.60;72.30;;;;;;5021612;28;20025;-63
2022/11/03 09:34:57;;;;;;;7.43;2.20;;;14.60;72.30;;;;;;5014226;28;20343;-64
2022/11/03 09:37:23;;;;;;;10.02;2.85;;;14.70;72.30;;;;;;5013965;28;20029;-63
2022/11/03 09:39:48;;;;;;;11.43;2.70;;;14.70;72.20;;;;;;5014611;28;20033;-63
2022/11/03 09:42:15;;;;;;;12.80;2.95;;;14.80;72.10;;;;;;5011979;28;20037;-63
2022/11/03 09:44:41;;;;;;;7.57;2.30;;;14.90;72.10;;;;;;5015707;28;20117;-63
2022/11/03 09:47:14;;;;;;;10.50;2.50;;;14.90;71.90;;;;;;4995339;28;20041;-63
2022/11/03 09:49:40;;;;;;;7.60;2.30;;;15.00;71.80;;;;;;5007335;28;20135;-63
2022/11/03 09:52:06;;;;;;;6.13;2.35;;;15.10;71.60;;;;;;5014797;28;20108;-63
2022/11/03 09:54:31;;;;;;;7.10;2.00;;;15.20;71.30;;;;;;5007309;28;20034;-60
2022/11/03 09:57:08;;;;;;;8.82;2.47;;;15.20;71.20;;;;;;5011587;28;20041;-61
2022/11/03 09:59:36;;;;;;;7.40;2.28;;;15.30;71.10;;;;;;5012303;28;20440;-62
2022/11/03 10:02:02;;;;;;;9.52;2.60;;;15.30;71.00;;;;;;5001103;28;20027;-61
2022/11/03 10:04:28;;;;;;;11.13;3.33;;;15.30;70.90;;;;;;5008873;28;20041;-61
2022/11/03 10:06:55;;;;;;;9.90;2.53;;;15.30;70.90;;;;;;4999555;28;20281;-61
2022/11/03 10:09:23;;;;;;;7.93;2.38;;;15.30;70.90;;;;;;5000529;28;20038;-61
2022/11/03 10:11:51;;;;;;;11.35;2.50;;;15.30;70.90;;;;;;5016748;28;20056;-61
2022/11/03 10:14:18;;;;;;;9.63;2.38;;;15.30;70.80;;;;;;5018081;28;20026;-60
2022/11/03 10:16:51;;;;;;;8.40;2.22;;;15.30;70.80;;;;;;5000789;28;21530;-63
2022/11/03 10:19:17;;;;;;;9.43;2.53;;;15.20;70.70;;;;;;5001007;28;20893;-63
2022/11/03 10:21:44;;;;;;;6.82;1.92;;;15.30;70.80;;;;;;5034681;28;20044;-63
2022/11/03 10:24:11;;;;;;;5.63;2.08;;;15.20;70.80;;;;;;5001496;28;20066;-63
2022/11/03 10:26:48;;;;;;;9.55;3.17;;;15.20;70.70;;;;;;5038398;28;20022;-63
2022/11/03 10:29:19;;;;;;;7.88;2.38;;;15.30;70.60;;;;;;5004595;28;20045;-63
2022/11/03 10:31:49;;;;;;;15.88;2.80;;;15.20;70.60;;;;;;5002366;28;20040;-63
2022/11/03 10:34:38;;;;;;;7.10;2.00;;;15.30;70.60;;;;;;5022468;28;20025;-63
2022/11/03 10:37:21;;;;;;;8.98;2.20;;;15.30;70.50;;;;;;5016446;28;20025;-64
2022/11/03 10:39:52;;;;;;;7.13;2.10;;;15.20;70.30;;;;;;4996806;28;20037;-64
2022/11/03 10:42:25;;;;;;;10.45;2.17;;;15.20;70.30;;;;;;5012179;28;20026;-64
2022/11/03 10:44:53;;;;;;;8.02;2.17;;;15.20;70.20;;;;;;5019247;28;20346;-63
2022/11/03 10:47:25;;;;;;;6.68;2.08;;;15.20;70.20;;;;;;5004260;28;20030;-64
2022/11/03 10:49:51;;;;;;;9.23;2.40;;;15.20;70.00;;;;;;5029989;28;20037;-64
2022/11/03 10:52:22;;;;;;;6.95;2.35;;;15.20;70.00;;;;;;5016792;28;20030;-64
2022/11/03 10:54:53;;;;;;;8.73;2.00;;;15.20;69.70;;;;;;4999782;28;20058;-63
2022/11/03 10:57:21;;;;;;;9.27;2.30;;;15.20;69.70;;;;;;5022674;28;20018;-64
2022/11/03 10:59:49;;;;;;;8.30;2.17;;;15.20;69.60;;;;;;5017071;28;20098;-64
2022/11/03 11:02:20;;;;;;;5.88;1.90;;;15.20;69.70;;;;;;5009691;28;20030;-64
2022/11/03 11:04:57;;;;;;;7.22;1.95;;;15.20;69.60;;;;;;5019149;28;20521;-63
2022/11/03 11:07:31;;;;;;;7.53;1.80;;;15.20;69.50;;;;;;5017142;28;20034;-63
2022/11/03 11:10:11;;;;;;;7.95;2.45;;;15.20;69.60;;;;;;5012757;28;20042;-64
2022/11/03 11:12:36;;;;;;;8.15;1.95;;;15.20;69.50;;;;;;5018150;28;20359;-63
2022/11/03 11:15:23;;;;;;;7.82;1.88;;;15.20;69.50;;;;;;5015107;28;20042;-63
2022/11/03 11:17:49;;;;;;;6.40;2.13;;;15.20;69.40;;;;;;5006141;28;20030;-64
2022/11/03 11:20:18;;;;;;;8.35;2.05;;;15.20;69.40;;;;;;5013331;28;20046;-64
2022/11/03 11:22:47;;;;;;;8.57;2.70;;;15.20;69.40;;;;;;4995342;28;20030;-64
2022/11/03 11:25:13;;;;;;;17.75;3.67;;;15.30;69.30;;;;;;5000730;28;20038;-63
2022/11/03 11:27:45;;;;;;;7.93;2.58;;;15.30;69.20;;;;;;5007896;28;20442;-63
2022/11/03 11:30:19;;;;;;;9.20;2.15;;;15.40;69.00;;;;;;5008503;28;20072;-63
2022/11/03 11:32:45;;;;;;;9.90;2.30;;;15.40;68.70;;;;;;5012334;28;20033;-63
2022/11/03 11:35:23;;;;;;;7.95;2.38;;;15.40;68.60;;;;;;5010111;28;20363;-63
2022/11/03 11:37:49;;;;;;;5.90;1.90;;;15.40;68.50;;;;;;5015520;28;20032;-63
2022/11/03 11:40:35;;;;;;;6.03;1.90;;;15.40;68.40;;;;;;5015942;28;20049;-63
2022/11/03 11:43:10;;;;;;;6.70;1.90;;;15.50;68.30;;;;;;5003298;28;20026;-63
2022/11/03 11:46:13;;;;;;;5.63;2.15;;;15.50;68.30;;;;;;5032295;28;20040;-63
2022/11/03 11:48:39;;;;;;;7.22;2.25;;;15.60;68.00;;;;;;5008644;28;20037;-63
2022/11/03 11:51:10;;;;;;;5.70;1.88;;;15.60;68.00;;;;;;5023631;28;20026;-63
2022/11/03 11:53:40;;;;;;;5.68;1.90;;;15.60;67.90;;;;;;5002720;28;20041;-63
2022/11/03 11:56:12;;;;;;;9.63;2.25;;;15.60;67.80;;;;;;5014340;28;20032;-63
2022/11/03 11:58:41;;;;;;;8.07;2.50;;;15.60;67.60;;;;;;5022175;28;20029;-63
2022/11/03 12:01:28;;;;;;;8.75;2.25;;;15.70;67.50;;;;;;5014706;28;20026;-63
2022/11/03 12:04:07;;;;;;;5.80;2.03;;;15.80;67.30;;;;;;5013460;28;20073;-63
2022/11/03 12:06:40;;;;;;;5.25;1.65;;;15.80;67.10;;;;;;5021754;28;20366;-63
2022/11/03 12:09:11;;;;;;;9.82;2.25;;;15.80;66.80;;;;;;5016698;28;20417;-63
2022/11/03 12:11:50;;;;;;;7.85;2.53;;;15.90;66.70;;;;;;5006975;28;20109;-63
2022/11/03 12:14:25;;;;;;;8.18;1.85;;;15.90;66.50;;;;;;5010107;28;20036;-62
2022/11/03 12:16:51;;;;;;;5.72;2.05;;;15.90;66.40;;;;;;5016263;28;20036;-63
2022/11/03 12:19:40;;;;;;;9.00;2.80;;;15.90;66.40;;;;;;5006417;28;20073;-63
2022/11/03 12:22:08;;;;;;;7.22;2.72;;;15.90;66.20;;;;;;5009496;28;20110;-63
2022/11/03 12:24:48;;;;;;;9.02;2.78;;;15.90;66.30;;;;;;5012645;28;20026;-63
2022/11/03 12:27:18;;;;;;;6.82;3.13;;;15.80;66.00;;;;;;5006657;28;20117;-68
2022/11/03 12:29:44;;;;;;;12.15;3.35;;;15.90;66.00;;;;;;5017331;28;20040;-66
2022/11/03 12:32:10;;;;;;;11.35;3.90;;;15.90;65.90;;;;;;5018762;28;20022;-64
2022/11/03 12:34:35;;;;;;;10.38;3.55;;;15.90;65.90;;;;;;5021317;28;20021;-64
2022/11/03 12:37:01;;;;;;;8.93;2.85;;;16.00;65.90;;;;;;5036540;28;20473;-64
2022/11/03 12:39:26;;;;;;;7.93;2.90;;;16.00;65.90;;;;;;5026622;28;20439;-63
2022/11/03 12:41:52;;;;;;;8.07;2.20;;;16.00;65.90;;;;;;5022325;28;20034;-63
2022/11/03 12:44:17;;;;;;;8.93;2.75;;;16.10;65.90;;;;;;5016814;28;20052;-64
2022/11/03 12:46:43;;;;;;;8.95;3.05;;;16.10;65.90;;;;;;5016111;28;20502;-63
2022/11/03 12:49:09;;;;;;;6.63;2.13;;;16.10;65.80;;;;;;5025143;28;20033;-64
2022/11/03 12:51:34;;;;;;;6.75;2.53;;;16.10;65.80;;;;;;5019226;28;20075;-64
2022/11/03 12:54:00;;;;;;;8.18;2.15;;;16.10;65.70;;;;;;5015552;28;20037;-64
2022/11/03 12:56:25;;;;;;;7.28;2.10;;;16.10;65.80;;;;;;5012903;28;20028;-64
2022/11/03 12:58:51;;;;;;;7.45;2.17;;;16.10;65.80;;;;;;5024509;28;20026;-64
2022/11/03 13:01:17;;;;;;;6.55;2.08;;;16.00;65.70;;;;;;5006590;28;20167;-63
2022/11/03 13:03:43;;;;;;;7.88;2.50;;;16.00;65.70;;;;;;5006599;28;20082;-64
2022/11/03 13:06:10;;;;;;;8.20;2.20;;;16.00;65.70;;;;;;5013046;28;20033;-62
2022/11/03 13:08:36;;;;;;;9.35;2.28;;;16.10;65.80;;;;;;5030926;28;20053;-63
2022/11/03 13:11:02;;;;;;;5.25;1.77;;;16.10;65.70;;;;;;5012004;28;20022;-63
2022/11/03 13:13:28;;;;;;;5.53;2.03;;;16.10;65.70;;;;;;5019614;28;20037;-62
2022/11/03 13:15:53;;;;;;;7.72;2.00;;;16.10;65.60;;;;;;5005344;28;20030;-62
2022/11/03 13:18:21;;;;;;;7.43;1.73;;;16.10;65.60;;;;;;5019820;28;20032;-62